createdAt,value
2018-12-07T00:02:17.920Z,17.00
2018-12-07T00:04:44.372Z,16.10
2018-12-07T00:07:10.882Z,16.70
2018-12-07T00:09:37.321Z,15.57
2018-12-07T00:12:03.735Z,16.20
2018-12-07T00:14:30.367Z,16.63
2018-12-07T00:16:56.878Z,15.37
2018-12-07T00:19:23.433Z,15.00
2018-12-07T00:21:50.088Z,15.93
2018-12-07T00:24:16.599Z,14.60
2018-12-07T00:26:43.026Z,14.90
2018-12-07T00:29:09.434Z,17.27
2018-12-07T00:31:35.863Z,16.00
2018-12-07T00:34:03.052Z,18.50
2018-12-07T00:36:29.839Z,16.20
2018-12-07T00:38:56.304Z,16.23
2018-12-07T00:41:22.930Z,16.90
2018-12-07T00:43:49.738Z,14.63
2018-12-07T00:46:16.166Z,16.70
2018-12-07T00:48:42.766Z,14.37
2018-12-07T00:51:09.218Z,17.80
2018-12-07T00:53:35.676Z,17.90
2018-12-07T00:56:02.228Z,15.80
2018-12-07T00:58:28.683Z,13.77
2018-12-07T01:00:55.061Z,16.50
2018-12-07T01:03:21.527Z,14.07
2018-12-07T01:05:48.002Z,14.20
2018-12-07T01:08:14.450Z,13.93
2018-12-07T01:10:40.905Z,13.47
2018-12-07T01:13:07.786Z,12.33
2018-12-07T01:15:34.399Z,13.90
2018-12-07T01:18:00.827Z,13.00
2018-12-07T01:20:27.259Z,14.13
2018-12-07T01:22:53.703Z,14.00
2018-12-07T01:25:20.224Z,13.63
2018-12-07T01:27:47.007Z,13.63
2018-12-07T01:30:13.431Z,14.03
2018-12-07T01:32:39.983Z,12.63
2018-12-07T01:35:06.476Z,13.00
2018-12-07T01:37:32.910Z,12.37
2018-12-07T01:39:59.436Z,13.60
2018-12-07T01:42:26.211Z,12.83
2018-12-07T01:44:52.671Z,12.20
2018-12-07T01:47:19.131Z,11.70
2018-12-07T01:49:45.690Z,13.67
2018-12-07T01:52:12.103Z,13.30
2018-12-07T01:54:38.583Z,12.67
2018-12-07T01:57:05.302Z,12.53
2018-12-07T01:59:31.740Z,12.47
2018-12-07T02:01:58.223Z,14.20
2018-12-07T02:04:24.936Z,12.87
2018-12-07T02:06:51.388Z,12.93
2018-12-07T02:09:17.823Z,16.27
2018-12-07T02:11:44.520Z,13.80
2018-12-07T02:14:11.009Z,13.27
2018-12-07T02:16:37.681Z,15.13
2018-12-07T02:19:04.180Z,15.90
2018-12-07T02:21:30.671Z,12.73
2018-12-07T02:23:57.102Z,13.13
2018-12-07T02:26:23.689Z,12.80
2018-12-07T02:28:50.130Z,16.43
2018-12-07T02:31:16.554Z,18.20
2018-12-07T02:33:43.005Z,12.57
2018-12-07T02:36:09.440Z,15.33
2018-12-07T02:38:35.792Z,13.67
2018-12-07T02:41:02.743Z,15.30
2018-12-07T02:43:29.234Z,13.70
2018-12-07T02:45:55.682Z,14.10
2018-12-07T02:48:22.480Z,16.20
2018-12-07T02:50:48.943Z,15.23
2018-12-07T02:53:15.420Z,13.87
2018-12-07T02:55:41.974Z,14.60
2018-12-07T02:58:08.427Z,14.53
2018-12-07T03:00:34.891Z,14.60
2018-12-07T03:03:01.586Z,14.93
2018-12-07T03:05:28.027Z,14.60
2018-12-07T03:07:54.490Z,14.73
2018-12-07T03:10:21.203Z,15.33
2018-12-07T03:12:47.803Z,17.00
2018-12-07T03:15:14.333Z,15.97
2018-12-07T03:17:41.022Z,20.83
2018-12-07T03:20:07.619Z,17.90
2018-12-07T03:22:34.080Z,17.53
2018-12-07T03:25:00.564Z,16.50
2018-12-07T03:27:27.089Z,19.10
2018-12-07T03:30:00.694Z,18.03
2018-12-07T03:32:27.264Z,17.93
2018-12-07T03:34:53.717Z,19.10
2018-12-07T03:37:20.514Z,19.27
2018-12-07T03:39:46.939Z,19.50
2018-12-07T03:42:13.363Z,18.60
2018-12-07T03:44:39.874Z,19.80
2018-12-07T03:47:06.290Z,18.63
2018-12-07T03:49:32.709Z,18.70
2018-12-07T03:51:59.472Z,18.87
2018-12-07T03:54:25.963Z,19.93
2018-12-07T03:56:52.434Z,19.50
2018-12-07T03:59:19.250Z,19.23
2018-12-07T04:01:45.703Z,19.80
2018-12-07T04:04:12.142Z,19.10
2018-12-07T04:06:38.631Z,18.80
2018-12-07T04:09:05.577Z,20.20
2018-12-07T04:11:32.136Z,19.60
2018-12-07T04:13:58.614Z,18.83
2018-12-07T04:16:25.034Z,17.43
2018-12-07T04:18:51.468Z,18.67
2018-12-07T04:21:18.219Z,18.03
2018-12-07T04:23:44.663Z,19.20
2018-12-07T04:26:11.079Z,17.80
2018-12-07T04:28:37.808Z,19.00
2018-12-07T04:31:04.260Z,19.40
2018-12-07T04:33:30.790Z,20.30
2018-12-07T04:35:57.283Z,19.60
2018-12-07T04:38:23.747Z,19.83
2018-12-07T04:40:50.277Z,18.90
2018-12-07T04:43:17.092Z,20.10
2018-12-07T04:45:43.533Z,19.87
2018-12-07T04:48:09.993Z,20.83
2018-12-07T04:50:36.471Z,20.73
2018-12-07T04:53:02.914Z,20.40
2018-12-07T04:55:29.684Z,20.60
2018-12-07T04:57:56.160Z,20.63
2018-12-07T05:00:22.621Z,21.00
2018-12-07T05:02:49.156Z,20.20
2018-12-07T05:05:15.709Z,20.70
2018-12-07T05:07:42.150Z,21.13
2018-12-07T05:10:08.632Z,20.63
2018-12-07T05:12:35.149Z,22.17
2018-12-07T05:15:01.593Z,22.07
2018-12-07T05:17:28.116Z,21.07
2018-12-07T05:19:54.615Z,20.50
2018-12-07T05:22:22.096Z,20.93
2018-12-07T05:24:48.526Z,21.20
2018-12-07T05:27:14.996Z,21.50
2018-12-07T05:29:41.498Z,21.60
2018-12-07T05:32:08.003Z,21.93
2018-12-07T05:34:34.463Z,20.77
2018-12-07T05:37:00.890Z,22.00
2018-12-07T05:39:28.375Z,22.10
2018-12-07T05:41:55.336Z,22.50
2018-12-07T05:44:21.756Z,19.70
2018-12-07T05:46:48.182Z,21.30
2018-12-07T05:49:14.911Z,21.33
2018-12-07T05:51:41.341Z,21.27
2018-12-07T05:54:12.393Z,19.50
2018-12-07T05:56:38.873Z,21.93
2018-12-07T05:59:05.408Z,20.40
2018-12-07T06:01:35.572Z,21.30
2018-12-07T06:04:02.157Z,19.83
2018-12-07T06:06:29.707Z,20.30
2018-12-07T06:08:56.175Z,18.67
2018-12-07T06:11:22.684Z,19.57
2018-12-07T06:13:49.161Z,19.57
2018-12-07T06:16:15.624Z,19.77
2018-12-07T06:18:42.087Z,16.90
2018-12-07T06:21:08.579Z,19.00
2018-12-07T06:23:34.998Z,18.70
2018-12-07T06:26:01.679Z,21.30
2018-12-07T06:28:28.155Z,19.40
2018-12-07T06:30:54.631Z,18.93
2018-12-07T06:33:21.565Z,17.60
2018-12-07T06:35:48.045Z,18.07
2018-12-07T06:38:14.482Z,19.20
2018-12-07T06:40:40.992Z,19.37
2018-12-07T06:43:07.438Z,20.50
2018-12-07T06:45:35.163Z,18.10
2018-12-07T06:48:01.922Z,20.07
2018-12-07T06:50:28.371Z,21.00
2018-12-07T06:52:54.841Z,20.37
2018-12-07T06:55:21.329Z,20.50
2018-12-07T06:57:48.278Z,20.40
2018-12-07T07:00:15.057Z,19.90
2018-12-07T07:02:41.815Z,19.00
2018-12-07T07:05:08.262Z,18.83
2018-12-07T07:07:34.711Z,19.60
2018-12-07T07:10:01.221Z,20.60
2018-12-07T07:12:29.240Z,19.77
2018-12-07T07:14:55.819Z,18.63
2018-12-07T07:17:22.321Z,18.60
2018-12-07T07:19:48.803Z,18.90
2018-12-07T07:22:15.226Z,19.47
2018-12-07T07:24:41.799Z,19.17
2018-12-07T07:27:08.223Z,17.70
2018-12-07T07:29:34.662Z,18.57
2018-12-07T07:32:01.543Z,18.20
2018-12-07T07:34:27.995Z,18.03
2018-12-07T07:36:54.590Z,17.43
2018-12-07T07:39:21.348Z,17.50
2018-12-07T07:41:47.811Z,16.90
2018-12-07T07:44:14.237Z,16.80
2018-12-07T07:46:40.604Z,16.67
2018-12-07T07:49:07.038Z,17.07
2018-12-07T07:51:33.491Z,16.97
2018-12-07T07:54:00.246Z,16.00
2018-12-07T07:56:26.707Z,15.07
2018-12-07T07:58:53.199Z,15.13
2018-12-07T08:01:19.677Z,17.00
2018-12-07T08:03:46.098Z,15.33
2018-12-07T08:06:12.562Z,14.73
2018-12-07T08:08:39.275Z,14.90
2018-12-07T08:11:05.768Z,15.50
2018-12-07T08:13:32.284Z,13.83
2018-12-07T08:15:59.023Z,14.33
2018-12-07T08:18:25.461Z,13.37
2018-12-07T08:20:51.890Z,13.20
2018-12-07T08:23:18.333Z,13.90
2018-12-07T08:25:44.795Z,14.50
2018-12-07T08:28:11.263Z,12.10
2018-12-07T08:30:37.990Z,14.43
2018-12-07T08:33:04.476Z,13.53
2018-12-07T08:35:30.947Z,13.37
2018-12-07T08:37:57.452Z,14.00
2018-12-07T08:40:23.935Z,11.93
2018-12-07T08:42:50.377Z,12.43
2018-12-07T08:45:17.098Z,11.33
2018-12-07T08:47:43.525Z,10.60
2018-12-07T08:50:09.946Z,11.17
2018-12-07T08:52:36.510Z,11.70
2018-12-07T08:55:03.341Z,10.63
2018-12-07T08:57:29.796Z,10.53
2018-12-07T08:59:56.347Z,9.60
2018-12-07T09:02:22.916Z,11.40
2018-12-07T09:04:49.392Z,12.53
2018-12-07T09:07:17.686Z,10.00
2018-12-07T09:09:44.366Z,10.60
2018-12-07T09:12:10.844Z,9.90
2018-12-07T09:14:37.339Z,11.27
2018-12-07T09:17:03.793Z,10.40
2018-12-07T09:19:30.251Z,8.83
2018-12-07T09:21:56.842Z,9.93
2018-12-07T09:24:23.296Z,8.87
2018-12-07T09:26:49.806Z,8.40
2018-12-07T09:29:16.653Z,7.80
2018-12-07T09:31:43.296Z,7.80
2018-12-07T09:34:09.784Z,7.70
2018-12-07T09:36:36.292Z,7.37
2018-12-07T09:39:04.630Z,7.40
2018-12-07T09:41:31.086Z,7.37
2018-12-07T09:43:57.528Z,8.67
2018-12-07T09:46:23.966Z,7.90
2018-12-07T09:48:50.382Z,7.20
2018-12-07T09:51:17.152Z,7.00
2018-12-07T09:53:43.614Z,7.30
2018-12-07T09:56:10.052Z,5.40
2018-12-07T09:58:36.848Z,6.67
2018-12-07T10:01:03.401Z,7.57
2018-12-07T10:03:29.878Z,6.30
2018-12-07T10:05:56.343Z,6.30
2018-12-07T10:08:22.786Z,5.43
2018-12-07T10:10:49.290Z,6.20
2018-12-07T10:13:16.177Z,5.57
2018-12-07T10:15:43.422Z,4.67
2018-12-07T10:18:09.845Z,5.73
2018-12-07T10:20:36.547Z,4.57
2018-12-07T10:23:02.979Z,4.33
2018-12-07T10:25:29.440Z,4.43
2018-12-07T10:27:55.955Z,4.13
2018-12-07T10:30:22.410Z,4.50
2018-12-07T10:32:48.866Z,3.77
2018-12-07T10:35:15.562Z,5.40
2018-12-07T10:37:41.990Z,5.07
2018-12-07T10:40:08.546Z,4.60
2018-12-07T10:42:35.047Z,4.30
2018-12-07T10:45:01.484Z,4.50
2018-12-07T10:47:27.922Z,4.23
2018-12-07T10:49:55.114Z,4.20
2018-12-07T10:52:21.601Z,4.20
2018-12-07T10:54:48.049Z,4.10
2018-12-07T10:57:14.582Z,3.37
2018-12-07T10:59:41.131Z,3.10
2018-12-07T11:02:13.788Z,3.37
2018-12-07T11:04:46.800Z,3.27
2018-12-07T11:07:19.415Z,3.10
2018-12-07T11:09:52.274Z,2.83
2018-12-07T11:12:25.000Z,2.80
2018-12-07T11:14:57.538Z,2.70
2018-12-07T11:17:30.149Z,4.50
2018-12-07T11:20:03.127Z,2.60
2018-12-07T11:22:35.889Z,2.83
2018-12-07T11:25:09.529Z,3.03
2018-12-07T11:27:42.157Z,2.90
2018-12-07T11:30:14.832Z,2.77
2018-12-07T11:32:43.382Z,3.40
2018-12-07T11:35:11.285Z,2.00
2018-12-07T11:37:37.989Z,3.00
2018-12-07T11:40:05.094Z,2.57
2018-12-07T11:45:28.159Z,2.40
2018-12-07T11:47:54.707Z,2.37
2018-12-07T11:50:21.260Z,2.10
2018-12-07T11:52:47.722Z,2.47
2018-12-07T11:55:14.214Z,2.83
2018-12-07T11:57:40.727Z,2.60
2018-12-07T12:00:07.517Z,2.43
2018-12-07T12:02:34.370Z,2.60
2018-12-07T12:05:00.951Z,3.00
2018-12-07T12:07:27.475Z,3.47
2018-12-07T12:09:54.467Z,2.37
2018-12-07T12:12:20.993Z,3.03
2018-12-07T12:14:47.448Z,3.10
2018-12-07T12:17:14.375Z,3.00
2018-12-07T12:19:40.826Z,3.20
2018-12-07T12:22:08.012Z,3.50
2018-12-07T12:24:34.895Z,2.80
2018-12-07T12:27:01.282Z,3.50
2018-12-07T12:29:27.738Z,3.23
2018-12-07T12:31:54.471Z,3.67
2018-12-07T12:34:20.951Z,4.80
2018-12-07T12:36:47.440Z,4.30
2018-12-07T12:39:14.230Z,3.53
2018-12-07T12:41:46.702Z,3.57
2018-12-07T12:44:09.311Z,3.77
2018-12-07T12:46:36.073Z,4.90
2018-12-07T12:49:02.553Z,4.20
2018-12-07T12:51:29.134Z,4.67
2018-12-07T12:53:55.815Z,3.83
2018-12-07T12:56:22.346Z,4.43
2018-12-07T12:58:48.831Z,4.60
2018-12-07T13:01:15.522Z,4.03
2018-12-07T13:03:41.913Z,3.93
2018-12-07T13:06:08.411Z,4.40
2018-12-07T13:08:35.081Z,4.80
2018-12-07T13:11:01.600Z,4.40
2018-12-07T13:13:28.076Z,4.43
2018-12-07T13:15:55.031Z,4.87
2018-12-07T13:18:21.597Z,4.50
2018-12-07T13:20:48.097Z,6.10
2018-12-07T13:23:14.848Z,4.80
2018-12-07T13:25:41.209Z,6.10
2018-12-07T13:28:07.686Z,5.27
2018-12-07T13:30:34.560Z,5.20
2018-12-07T13:33:01.082Z,5.80
2018-12-07T13:35:27.563Z,6.23
2018-12-07T13:37:55.129Z,6.47
2018-12-07T13:40:21.773Z,7.83
2018-12-07T13:42:48.450Z,8.30
2018-12-07T13:45:15.307Z,8.50
2018-12-07T13:47:41.861Z,6.40
2018-12-07T13:50:14.821Z,5.13
2018-12-07T13:52:41.520Z,7.20
2018-12-07T13:55:08.106Z,6.17
2018-12-07T13:57:35.735Z,6.60
2018-12-07T14:00:02.985Z,6.80
2018-12-07T14:02:29.546Z,5.80
2018-12-07T14:04:59.586Z,7.07
2018-12-07T14:07:26.410Z,6.67
2018-12-07T14:09:53.018Z,6.50
2018-12-07T14:12:19.822Z,6.60
2018-12-07T14:14:46.537Z,5.70
2018-12-07T14:17:13.139Z,5.80
2018-12-07T14:19:39.957Z,6.70
2018-12-07T14:22:06.721Z,6.70
2018-12-07T14:24:33.315Z,6.63
2018-12-07T14:27:00.231Z,7.60
2018-12-07T14:29:26.666Z,8.03
2018-12-07T14:31:53.536Z,7.20
2018-12-07T14:34:21.434Z,6.20
2018-12-07T14:36:47.974Z,4.83
2018-12-07T14:39:14.622Z,5.50
2018-12-07T14:41:41.646Z,5.67
2018-12-07T14:44:08.199Z,6.73
2018-12-07T14:46:34.692Z,8.00
2018-12-07T14:49:01.420Z,5.70
2018-12-07T14:51:32.676Z,7.83
2018-12-07T14:53:59.337Z,6.60
2018-12-07T14:56:26.558Z,7.60
2018-12-07T14:58:53.090Z,6.87
2018-12-07T15:01:19.761Z,7.40
2018-12-07T15:03:46.572Z,7.97
2018-12-07T15:06:13.258Z,6.50
2018-12-07T15:08:40.286Z,8.00
2018-12-07T15:11:06.963Z,7.50
2018-12-07T15:13:33.689Z,7.93
2018-12-07T15:16:00.640Z,7.80
2018-12-07T15:18:27.470Z,7.70
2018-12-07T15:20:54.022Z,6.70
2018-12-07T15:23:21.113Z,8.40
2018-12-07T15:25:47.858Z,8.93
2018-12-07T15:28:14.543Z,8.93
2018-12-07T15:30:41.651Z,8.97
2018-12-07T15:33:08.763Z,8.80
2018-12-07T15:35:35.551Z,9.10
2018-12-07T15:38:02.276Z,8.70
2018-12-07T15:40:29.224Z,8.63
2018-12-07T15:42:55.949Z,8.97
2018-12-07T15:45:22.677Z,9.70
2018-12-07T15:47:49.459Z,9.53
2018-12-07T15:50:16.423Z,8.20
2018-12-07T15:52:42.987Z,7.40
2018-12-07T15:55:09.751Z,7.40
2018-12-07T15:57:36.733Z,7.80
2018-12-07T16:00:05.771Z,9.40
2018-12-07T16:02:32.975Z,9.50
2018-12-07T16:04:59.807Z,7.70
2018-12-07T16:07:26.493Z,8.80
2018-12-07T16:09:53.473Z,9.10
2018-12-07T16:12:20.318Z,11.40
2018-12-07T16:14:46.947Z,9.10
2018-12-07T16:17:13.489Z,10.40
2018-12-07T16:19:40.044Z,9.37
2018-12-07T16:22:06.788Z,9.77
2018-12-07T16:24:33.708Z,8.47
2018-12-07T16:27:00.373Z,8.80
2018-12-07T16:29:26.975Z,10.07
2018-12-07T16:31:54.229Z,11.00
2018-12-07T16:34:20.757Z,10.93
2018-12-07T16:36:47.343Z,11.20
2018-12-07T16:39:14.413Z,11.07
2018-12-07T16:41:41.282Z,10.40
2018-12-07T16:44:07.919Z,11.93
2018-12-07T16:46:41.393Z,12.30
2018-12-07T16:49:08.258Z,11.40
2018-12-07T16:51:34.923Z,13.97
2018-12-07T16:54:01.872Z,11.70
2018-12-07T16:56:29.465Z,13.50
2018-12-07T16:58:56.176Z,12.90
2018-12-07T17:01:23.244Z,11.20
2018-12-07T17:03:49.878Z,11.30
2018-12-07T17:06:16.517Z,13.27
2018-12-07T17:08:43.757Z,11.37
2018-12-07T17:11:11.489Z,10.80
2018-12-07T17:13:38.012Z,9.80
2018-12-07T17:16:05.040Z,11.40
2018-12-07T17:18:31.551Z,10.83
2018-12-07T17:20:58.105Z,12.40
2018-12-07T17:23:24.691Z,11.87
2018-12-07T17:25:51.185Z,12.53
2018-12-07T17:28:18.341Z,12.13
2018-12-07T17:30:45.313Z,13.00
2018-12-07T17:36:08.404Z,13.80
2018-12-07T17:38:34.936Z,14.00
2018-12-07T17:41:01.416Z,12.33
2018-12-07T17:43:28.028Z,15.40
2018-12-07T17:45:54.548Z,13.20
2018-12-07T17:48:21.084Z,13.57
2018-12-07T17:50:47.758Z,12.83
2018-12-07T17:53:14.422Z,14.50
2018-12-07T17:55:41.008Z,13.10
2018-12-07T17:58:08.014Z,12.43
2018-12-07T18:00:34.791Z,12.50
2018-12-07T18:03:01.462Z,13.50
2018-12-07T18:05:28.137Z,12.70
2018-12-07T18:07:55.835Z,14.03
2018-12-07T18:10:22.489Z,13.50
2018-12-07T18:12:49.447Z,13.13
2018-12-07T18:15:16.028Z,12.57
2018-12-07T18:17:42.626Z,17.90
2018-12-07T18:20:09.434Z,12.83
2018-12-07T18:22:36.264Z,13.43
2018-12-07T18:25:03.465Z,14.30
2018-12-07T18:27:30.244Z,12.30
2018-12-07T18:29:56.901Z,14.73
2018-12-07T18:32:23.587Z,13.40
2018-12-07T18:34:50.171Z,13.77
2018-12-07T18:37:16.757Z,12.03
2018-12-07T18:39:43.810Z,13.60
2018-12-07T18:42:10.557Z,13.90
2018-12-07T18:44:37.515Z,14.60
2018-12-07T18:47:04.320Z,12.13
2018-12-07T18:49:31.413Z,13.73
2018-12-07T18:51:58.399Z,12.40
2018-12-07T18:54:25.075Z,15.57
2018-12-07T18:56:52.641Z,12.30
2018-12-07T18:59:19.337Z,11.10
2018-12-07T19:01:45.988Z,11.20
2018-12-07T19:04:12.878Z,10.83
2018-12-07T19:06:39.838Z,11.40
2018-12-07T19:09:06.765Z,11.17
2018-12-07T19:11:33.635Z,10.20
2018-12-07T19:14:00.342Z,11.20
2018-12-07T19:16:26.975Z,10.73
2018-12-07T19:18:54.179Z,11.13
2018-12-07T19:21:21.156Z,11.30
2018-12-07T19:23:49.295Z,12.67
2018-12-07T19:26:16.349Z,11.90
2018-12-07T19:28:42.992Z,11.30
2018-12-07T19:31:09.622Z,11.43
2018-12-07T19:33:36.803Z,12.50
2018-12-07T19:36:03.711Z,10.70
2018-12-07T19:38:31.601Z,11.73
2018-12-07T19:40:58.700Z,13.40
2018-12-07T19:43:25.318Z,14.80
2018-12-07T19:45:51.916Z,12.80
2018-12-07T19:48:19.033Z,14.27
2018-12-07T19:50:46.778Z,12.90
2018-12-07T19:53:13.455Z,15.30
2018-12-07T19:55:39.958Z,13.27
2018-12-07T19:58:06.697Z,13.80
2018-12-07T20:00:33.606Z,13.70
2018-12-07T20:03:00.627Z,14.27
2018-12-07T20:05:27.559Z,11.00
2018-12-07T20:07:55.158Z,13.60
2018-12-07T20:10:22.069Z,12.53
2018-12-07T20:12:48.860Z,12.13
2018-12-07T20:15:15.611Z,14.10
2018-12-07T20:17:44.378Z,16.90
2018-12-07T20:20:10.849Z,13.47
2018-12-07T20:22:38.421Z,13.60
2018-12-07T20:25:05.278Z,13.70
2018-12-07T20:27:31.894Z,14.40
2018-12-07T20:29:58.583Z,11.97
2018-12-07T20:32:25.543Z,12.33
2018-12-07T20:34:51.999Z,10.10
2018-12-07T20:37:18.790Z,10.63
2018-12-07T20:39:45.473Z,10.27
2018-12-07T20:42:12.326Z,10.77
2018-12-07T20:44:39.069Z,10.77
2018-12-07T20:47:06.213Z,10.60
2018-12-07T20:49:32.779Z,9.10
2018-12-07T20:51:59.297Z,8.87
2018-12-07T20:54:26.178Z,7.30
2018-12-07T20:56:52.667Z,9.20
2018-12-07T20:59:19.386Z,7.63
2018-12-07T21:01:51.570Z,6.57
2018-12-07T21:04:25.955Z,8.10
2018-12-07T21:13:24.490Z,6.40
2018-12-07T21:15:51.151Z,4.77
2018-12-07T21:18:17.855Z,7.20
2018-12-07T21:20:44.751Z,3.40
2018-12-07T21:23:11.444Z,4.30
2018-12-07T21:25:38.127Z,5.00
2018-12-07T21:28:05.339Z,3.90
2018-12-07T21:30:50.132Z,3.43
2018-12-07T21:33:17.473Z,8.53
2018-12-07T21:35:49.316Z,3.73
2018-12-07T21:38:15.807Z,3.20
2018-12-07T21:40:42.174Z,2.70
2018-12-07T21:43:08.680Z,2.70
2018-12-07T21:45:35.436Z,4.23
2018-12-07T21:48:15.399Z,2.30
2018-12-07T21:50:42.716Z,3.83
2018-12-07T21:53:09.581Z,2.10
2018-12-07T21:55:36.957Z,3.50
2018-12-07T21:58:03.688Z,4.10
2018-12-07T22:00:30.396Z,4.10
2018-12-07T22:03:01.940Z,3.97
2018-12-07T22:05:25.544Z,3.53
2018-12-07T22:07:52.256Z,2.50
2018-12-07T22:10:18.921Z,3.10
2018-12-07T22:12:45.389Z,3.50
2018-12-07T22:15:12.064Z,2.87
2018-12-07T22:17:39.341Z,3.63
2018-12-07T22:20:06.180Z,4.97
2018-12-07T22:22:32.823Z,2.83
2018-12-07T22:24:59.620Z,4.90
2018-12-07T22:27:26.315Z,5.70
2018-12-07T22:29:53.009Z,4.60
2018-12-07T22:32:19.926Z,3.57
2018-12-07T22:34:46.579Z,4.10
2018-12-07T22:37:13.344Z,3.37
2018-12-07T22:39:40.408Z,5.80
2018-12-07T22:42:07.290Z,4.90
2018-12-07T22:44:34.221Z,3.03
2018-12-07T22:47:01.155Z,3.20
2018-12-07T22:49:27.607Z,1.67
2018-12-07T22:51:54.089Z,2.60
2018-12-07T22:54:20.798Z,2.20
2018-12-07T22:56:47.274Z,2.90
2018-12-07T22:59:13.720Z,2.60
2018-12-07T23:01:40.563Z,2.20
2018-12-07T23:04:07.010Z,1.97
2018-12-07T23:06:33.626Z,2.30
2018-12-07T23:09:00.279Z,3.33
2018-12-07T23:11:26.749Z,1.90
2018-12-07T23:13:53.130Z,1.90
2018-12-07T23:16:19.557Z,1.63
2018-12-07T23:18:46.102Z,2.10
2018-12-07T23:21:12.561Z,1.97
2018-12-07T23:23:39.045Z,3.23
2018-12-07T23:26:05.626Z,1.83
2018-12-07T23:28:32.118Z,1.90
2018-12-07T23:30:58.906Z,2.03
2018-12-07T23:33:25.371Z,1.87
2018-12-07T23:35:51.799Z,2.10
2018-12-07T23:38:18.462Z,1.73
2018-12-07T23:40:44.976Z,2.30
2018-12-07T23:43:11.453Z,1.77
2018-12-07T23:45:38.223Z,2.27
2018-12-07T23:48:11.490Z,2.60
2018-12-07T23:50:38.271Z,5.23
2018-12-07T23:53:04.726Z,3.67
2018-12-07T23:55:31.185Z,2.97
2018-12-07T23:57:57.870Z,2.50
